sensor_id;sensor_type;location;lat;lon;timestamp;P1;durP1;ratioP1;P2;durP2;ratioP2
19537;SDS011;9914;51.008;4.300;2022-07-29T00:02:24;3.40;;;1.60;;
19537;SDS011;9914;51.008;4.300;2022-07-29T00:04:49;4.40;;;1.50;;
19537;SDS011;9914;51.008;4.300;2022-07-29T00:07:16;7.53;;;2.03;;
19537;SDS011;9914;51.008;4.300;2022-07-29T00:09:42;3.83;;;1.60;;
19537;SDS011;9914;51.008;4.300;2022-07-29T00:12:07;6.37;;;2.03;;
19537;SDS011;9914;51.008;4.300;2022-07-29T00:14:34;4.93;;;1.60;;
19537;SDS011;9914;51.008;4.300;2022-07-29T00:16:59;2.73;;;1.70;;
19537;SDS011;9914;51.008;4.300;2022-07-29T00:19:25;2.03;;;1.40;;
19537;SDS011;9914;51.008;4.300;2022-07-29T00:21:51;4.00;;;1.67;;
19537;SDS011;9914;51.008;4.300;2022-07-29T00:24:17;4.03;;;2.17;;
19537;SDS011;9914;51.008;4.300;2022-07-29T00:26:42;3.40;;;1.50;;
19537;SDS011;9914;51.008;4.300;2022-07-29T00:29:08;3.83;;;1.60;;
19537;SDS011;9914;51.008;4.300;2022-07-29T00:31:33;3.10;;;2.00;;
19537;SDS011;9914;51.008;4.300;2022-07-29T00:33:59;2.93;;;1.40;;
19537;SDS011;9914;51.008;4.300;2022-07-29T00:36:25;4.50;;;1.97;;
19537;SDS011;9914;51.008;4.300;2022-07-29T00:38:51;5.03;;;1.90;;
19537;SDS011;9914;51.008;4.300;2022-07-29T00:41:17;5.17;;;1.60;;
19537;SDS011;9914;51.008;4.300;2022-07-29T00:43:44;3.00;;;1.80;;
19537;SDS011;9914;51.008;4.300;2022-07-29T00:46:10;3.93;;;2.00;;
19537;SDS011;9914;51.008;4.300;2022-07-29T00:48:36;3.47;;;1.93;;
19537;SDS011;9914;51.008;4.300;2022-07-29T00:51:03;2.07;;;1.63;;
19537;SDS011;9914;51.008;4.300;2022-07-29T00:53:30;4.50;;;1.80;;
19537;SDS011;9914;51.008;4.300;2022-07-29T00:55:56;3.67;;;2.00;;
19537;SDS011;9914;51.008;4.300;2022-07-29T00:58:23;6.47;;;2.17;;
19537;SDS011;9914;51.008;4.300;2022-07-29T01:00:49;3.37;;;1.67;;
19537;SDS011;9914;51.008;4.300;2022-07-29T01:03:15;4.17;;;1.80;;
19537;SDS011;9914;51.008;4.300;2022-07-29T01:05:42;5.83;;;2.17;;
19537;SDS011;9914;51.008;4.300;2022-07-29T01:08:10;2.33;;;1.70;;
19537;SDS011;9914;51.008;4.300;2022-07-29T01:10:38;3.67;;;2.00;;
19537;SDS011;9914;51.008;4.300;2022-07-29T01:13:05;4.47;;;1.80;;
19537;SDS011;9914;51.008;4.300;2022-07-29T01:15:33;4.10;;;2.30;;
19537;SDS011;9914;51.008;4.300;2022-07-29T01:26:22;3.37;;;2.03;;
19537;SDS011;9914;51.008;4.300;2022-07-29T01:29:03;4.10;;;1.90;;
19537;SDS011;9914;51.008;4.300;2022-07-29T01:34:05;4.57;;;2.07;;
19537;SDS011;9914;51.008;4.300;2022-07-29T01:36:35;6.17;;;2.43;;
19537;SDS011;9914;51.008;4.300;2022-07-29T01:39:21;8.13;;;2.03;;
19537;SDS011;9914;51.008;4.300;2022-07-29T01:42:05;2.33;;;1.90;;
19537;SDS011;9914;51.008;4.300;2022-07-29T01:44:57;4.00;;;2.20;;
19537;SDS011;9914;51.008;4.300;2022-07-29T01:47:40;4.17;;;2.23;;
19537;SDS011;9914;51.008;4.300;2022-07-29T01:50:12;4.83;;;2.00;;
19537;SDS011;9914;51.008;4.300;2022-07-29T01:52:54;4.23;;;2.20;;
19537;SDS011;9914;51.008;4.300;2022-07-29T01:55:25;3.77;;;2.27;;
19537;SDS011;9914;51.008;4.300;2022-07-29T01:57:57;5.07;;;2.07;;
19537;SDS011;9914;51.008;4.300;2022-07-29T02:00:25;4.00;;;1.87;;
19537;SDS011;9914;51.008;4.300;2022-07-29T02:02:51;4.97;;;2.47;;
19537;SDS011;9914;51.008;4.300;2022-07-29T02:05:20;5.23;;;2.20;;
19537;SDS011;9914;51.008;4.300;2022-07-29T02:07:48;5.73;;;2.40;;
19537;SDS011;9914;51.008;4.300;2022-07-29T02:10:16;5.63;;;2.37;;
19537;SDS011;9914;51.008;4.300;2022-07-29T02:12:46;2.70;;;2.03;;
19537;SDS011;9914;51.008;4.300;2022-07-29T02:15:13;3.17;;;2.10;;
19537;SDS011;9914;51.008;4.300;2022-07-29T02:17:46;5.70;;;2.43;;
19537;SDS011;9914;51.008;4.300;2022-07-29T02:20:16;4.97;;;2.33;;
19537;SDS011;9914;51.008;4.300;2022-07-29T02:22:42;4.47;;;2.50;;
19537;SDS011;9914;51.008;4.300;2022-07-29T02:25:10;3.63;;;2.20;;
19537;SDS011;9914;51.008;4.300;2022-07-29T02:27:37;4.87;;;2.50;;
19537;SDS011;9914;51.008;4.300;2022-07-29T02:30:04;6.40;;;2.63;;
19537;SDS011;9914;51.008;4.300;2022-07-29T02:32:32;3.13;;;2.20;;
19537;SDS011;9914;51.008;4.300;2022-07-29T02:35:00;5.40;;;2.23;;
19537;SDS011;9914;51.008;4.300;2022-07-29T02:37:27;4.87;;;2.10;;
19537;SDS011;9914;51.008;4.300;2022-07-29T02:39:54;4.73;;;2.40;;
19537;SDS011;9914;51.008;4.300;2022-07-29T02:42:22;5.30;;;2.30;;
19537;SDS011;9914;51.008;4.300;2022-07-29T02:44:51;5.50;;;2.30;;
19537;SDS011;9914;51.008;4.300;2022-07-29T02:47:24;3.53;;;2.03;;
19537;SDS011;9914;51.008;4.300;2022-07-29T02:50:09;3.53;;;2.30;;
19537;SDS011;9914;51.008;4.300;2022-07-29T02:52:47;3.93;;;2.30;;
19537;SDS011;9914;51.008;4.300;2022-07-29T02:58:40;2.63;;;2.00;;
19537;SDS011;9914;51.008;4.300;2022-07-29T03:01:20;5.60;;;2.30;;
19537;SDS011;9914;51.008;4.300;2022-07-29T03:03:48;2.57;;;2.10;;
19537;SDS011;9914;51.008;4.300;2022-07-29T03:06:17;5.43;;;2.40;;
19537;SDS011;9914;51.008;4.300;2022-07-29T03:08:44;4.30;;;2.37;;
19537;SDS011;9914;51.008;4.300;2022-07-29T03:11:11;5.00;;;2.40;;
19537;SDS011;9914;51.008;4.300;2022-07-29T03:13:38;4.43;;;2.37;;
19537;SDS011;9914;51.008;4.300;2022-07-29T03:16:04;4.07;;;2.50;;
19537;SDS011;9914;51.008;4.300;2022-07-29T03:18:31;4.00;;;2.40;;
19537;SDS011;9914;51.008;4.300;2022-07-29T03:20:57;4.77;;;2.33;;
19537;SDS011;9914;51.008;4.300;2022-07-29T03:23:23;5.37;;;2.50;;
19537;SDS011;9914;51.008;4.300;2022-07-29T03:25:51;3.33;;;2.20;;
19537;SDS011;9914;51.008;4.300;2022-07-29T03:28:17;4.30;;;2.40;;
19537;SDS011;9914;51.008;4.300;2022-07-29T03:30:43;4.87;;;2.77;;
19537;SDS011;9914;51.008;4.300;2022-07-29T03:33:09;3.20;;;2.20;;
19537;SDS011;9914;51.008;4.300;2022-07-29T03:35:34;6.73;;;2.90;;
19537;SDS011;9914;51.008;4.300;2022-07-29T03:38:00;5.13;;;2.33;;
19537;SDS011;9914;51.008;4.300;2022-07-29T03:40:28;4.37;;;2.23;;
19537;SDS011;9914;51.008;4.300;2022-07-29T03:42:56;4.73;;;2.30;;
19537;SDS011;9914;51.008;4.300;2022-07-29T03:45:24;4.93;;;2.60;;
19537;SDS011;9914;51.008;4.300;2022-07-29T03:47:55;5.77;;;2.30;;
19537;SDS011;9914;51.008;4.300;2022-07-29T03:50:26;3.73;;;2.40;;
19537;SDS011;9914;51.008;4.300;2022-07-29T03:52:54;3.93;;;2.50;;
19537;SDS011;9914;51.008;4.300;2022-07-29T03:55:19;4.70;;;2.27;;
19537;SDS011;9914;51.008;4.300;2022-07-29T03:57:45;4.93;;;2.13;;
19537;SDS011;9914;51.008;4.300;2022-07-29T04:00:13;5.43;;;2.53;;
19537;SDS011;9914;51.008;4.300;2022-07-29T04:02:40;2.83;;;2.30;;
19537;SDS011;9914;51.008;4.300;2022-07-29T04:05:12;4.23;;;2.50;;
19537;SDS011;9914;51.008;4.300;2022-07-29T04:07:39;6.83;;;2.33;;
19537;SDS011;9914;51.008;4.300;2022-07-29T04:10:08;3.93;;;2.70;;
19537;SDS011;9914;51.008;4.300;2022-07-29T04:12:34;4.97;;;2.70;;
19537;SDS011;9914;51.008;4.300;2022-07-29T04:15:00;7.50;;;2.73;;
19537;SDS011;9914;51.008;4.300;2022-07-29T04:17:27;5.60;;;2.90;;
19537;SDS011;9914;51.008;4.300;2022-07-29T04:19:53;5.73;;;2.80;;
19537;SDS011;9914;51.008;4.300;2022-07-29T04:22:19;5.47;;;3.03;;
19537;SDS011;9914;51.008;4.300;2022-07-29T04:24:45;6.60;;;2.80;;
19537;SDS011;9914;51.008;4.300;2022-07-29T04:27:11;9.17;;;3.30;;
19537;SDS011;9914;51.008;4.300;2022-07-29T04:29:37;6.37;;;3.00;;
19537;SDS011;9914;51.008;4.300;2022-07-29T04:32:03;4.70;;;2.80;;
19537;SDS011;9914;51.008;4.300;2022-07-29T04:34:29;6.90;;;2.97;;
19537;SDS011;9914;51.008;4.300;2022-07-29T04:36:55;4.57;;;2.77;;
19537;SDS011;9914;51.008;4.300;2022-07-29T04:39:20;7.73;;;3.13;;
19537;SDS011;9914;51.008;4.300;2022-07-29T04:41:46;7.67;;;2.97;;
19537;SDS011;9914;51.008;4.300;2022-07-29T04:44:12;6.83;;;3.13;;
19537;SDS011;9914;51.008;4.300;2022-07-29T04:46:38;6.30;;;3.40;;
19537;SDS011;9914;51.008;4.300;2022-07-29T04:49:04;5.97;;;3.10;;
19537;SDS011;9914;51.008;4.300;2022-07-29T04:51:30;4.97;;;2.80;;
19537;SDS011;9914;51.008;4.300;2022-07-29T04:53:56;8.10;;;3.30;;
19537;SDS011;9914;51.008;4.300;2022-07-29T04:56:21;7.93;;;3.43;;
19537;SDS011;9914;51.008;4.300;2022-07-29T04:58:47;9.83;;;3.30;;
19537;SDS011;9914;51.008;4.300;2022-07-29T05:01:13;7.17;;;3.40;;
19537;SDS011;9914;51.008;4.300;2022-07-29T05:03:39;8.40;;;2.83;;
19537;SDS011;9914;51.008;4.300;2022-07-29T05:06:05;3.23;;;2.80;;
19537;SDS011;9914;51.008;4.300;2022-07-29T05:08:31;5.23;;;3.03;;
19537;SDS011;9914;51.008;4.300;2022-07-29T05:10:57;7.97;;;2.80;;
19537;SDS011;9914;51.008;4.300;2022-07-29T05:13:22;7.73;;;3.10;;
19537;SDS011;9914;51.008;4.300;2022-07-29T05:15:48;5.63;;;3.20;;
19537;SDS011;9914;51.008;4.300;2022-07-29T05:18:14;5.33;;;2.60;;
19537;SDS011;9914;51.008;4.300;2022-07-29T05:20:40;4.80;;;2.77;;
19537;SDS011;9914;51.008;4.300;2022-07-29T05:23:06;8.80;;;2.90;;
19537;SDS011;9914;51.008;4.300;2022-07-29T05:25:32;8.00;;;2.73;;
19537;SDS011;9914;51.008;4.300;2022-07-29T05:27:58;4.47;;;3.00;;
19537;SDS011;9914;51.008;4.300;2022-07-29T05:30:24;6.80;;;3.53;;
19537;SDS011;9914;51.008;4.300;2022-07-29T05:32:49;3.27;;;2.60;;
19537;SDS011;9914;51.008;4.300;2022-07-29T05:35:15;3.00;;;2.47;;
19537;SDS011;9914;51.008;4.300;2022-07-29T05:37:41;4.37;;;2.80;;
19537;SDS011;9914;51.008;4.300;2022-07-29T05:40:07;5.73;;;3.10;;
19537;SDS011;9914;51.008;4.300;2022-07-29T05:42:34;5.50;;;3.13;;
19537;SDS011;9914;51.008;4.300;2022-07-29T05:45:00;3.93;;;2.80;;
19537;SDS011;9914;51.008;4.300;2022-07-29T05:47:26;7.13;;;3.23;;
19537;SDS011;9914;51.008;4.300;2022-07-29T05:49:52;7.53;;;2.97;;
19537;SDS011;9914;51.008;4.300;2022-07-29T05:52:18;4.37;;;2.83;;
19537;SDS011;9914;51.008;4.300;2022-07-29T05:54:44;4.83;;;2.90;;
19537;SDS011;9914;51.008;4.300;2022-07-29T05:57:17;4.10;;;2.63;;
19537;SDS011;9914;51.008;4.300;2022-07-29T05:59:43;4.50;;;3.03;;
19537;SDS011;9914;51.008;4.300;2022-07-29T06:02:09;5.13;;;3.00;;
19537;SDS011;9914;51.008;4.300;2022-07-29T06:04:34;7.33;;;3.40;;
19537;SDS011;9914;51.008;4.300;2022-07-29T06:07:00;5.10;;;3.43;;
19537;SDS011;9914;51.008;4.300;2022-07-29T06:09:26;4.40;;;3.03;;
19537;SDS011;9914;51.008;4.300;2022-07-29T06:11:53;5.93;;;3.57;;
19537;SDS011;9914;51.008;4.300;2022-07-29T06:14:19;3.80;;;3.27;;
19537;SDS011;9914;51.008;4.300;2022-07-29T06:16:44;6.53;;;3.37;;
19537;SDS011;9914;51.008;4.300;2022-07-29T06:19:10;6.60;;;3.10;;
19537;SDS011;9914;51.008;4.300;2022-07-29T06:21:36;5.23;;;3.30;;
19537;SDS011;9914;51.008;4.300;2022-07-29T06:24:01;7.37;;;3.37;;
19537;SDS011;9914;51.008;4.300;2022-07-29T06:26:27;5.27;;;3.57;;
19537;SDS011;9914;51.008;4.300;2022-07-29T06:28:53;7.27;;;2.90;;
19537;SDS011;9914;51.008;4.300;2022-07-29T06:31:18;4.47;;;3.10;;
19537;SDS011;9914;51.008;4.300;2022-07-29T06:33:44;5.60;;;3.43;;
19537;SDS011;9914;51.008;4.300;2022-07-29T06:36:11;4.53;;;3.20;;
19537;SDS011;9914;51.008;4.300;2022-07-29T06:38:36;3.57;;;3.00;;
19537;SDS011;9914;51.008;4.300;2022-07-29T06:41:03;8.33;;;3.73;;
19537;SDS011;9914;51.008;4.300;2022-07-29T06:43:40;8.57;;;3.27;;
19537;SDS011;9914;51.008;4.300;2022-07-29T06:46:08;6.73;;;3.30;;
19537;SDS011;9914;51.008;4.300;2022-07-29T06:48:38;9.03;;;4.03;;
19537;SDS011;9914;51.008;4.300;2022-07-29T06:51:05;3.37;;;3.07;;
19537;SDS011;9914;51.008;4.300;2022-07-29T06:53:32;5.40;;;3.33;;
19537;SDS011;9914;51.008;4.300;2022-07-29T06:55:58;8.00;;;3.80;;
19537;SDS011;9914;51.008;4.300;2022-07-29T06:58:25;6.43;;;3.57;;
19537;SDS011;9914;51.008;4.300;2022-07-29T07:00:53;5.80;;;3.43;;
19537;SDS011;9914;51.008;4.300;2022-07-29T07:03:18;6.63;;;3.50;;
19537;SDS011;9914;51.008;4.300;2022-07-29T07:05:44;3.83;;;2.90;;
19537;SDS011;9914;51.008;4.300;2022-07-29T07:08:11;4.97;;;3.60;;
19537;SDS011;9914;51.008;4.300;2022-07-29T07:10:37;6.50;;;3.67;;
19537;SDS011;9914;51.008;4.300;2022-07-29T07:13:03;5.10;;;3.17;;
19537;SDS011;9914;51.008;4.300;2022-07-29T07:15:29;5.50;;;3.23;;
19537;SDS011;9914;51.008;4.300;2022-07-29T07:17:55;6.40;;;3.30;;
19537;SDS011;9914;51.008;4.300;2022-07-29T07:20:21;4.70;;;3.13;;
19537;SDS011;9914;51.008;4.300;2022-07-29T07:22:46;6.60;;;3.40;;
19537;SDS011;9914;51.008;4.300;2022-07-29T07:25:12;5.53;;;3.37;;
19537;SDS011;9914;51.008;4.300;2022-07-29T07:27:38;6.93;;;3.43;;
19537;SDS011;9914;51.008;4.300;2022-07-29T07:30:06;3.83;;;3.30;;
19537;SDS011;9914;51.008;4.300;2022-07-29T07:32:32;6.00;;;3.07;;
19537;SDS011;9914;51.008;4.300;2022-07-29T07:34:58;6.07;;;3.33;;
19537;SDS011;9914;51.008;4.300;2022-07-29T07:37:24;8.30;;;3.70;;
19537;SDS011;9914;51.008;4.300;2022-07-29T07:39:53;4.20;;;3.20;;
19537;SDS011;9914;51.008;4.300;2022-07-29T07:42:19;3.60;;;3.10;;
19537;SDS011;9914;51.008;4.300;2022-07-29T07:44:45;7.87;;;3.47;;
19537;SDS011;9914;51.008;4.300;2022-07-29T07:47:13;5.63;;;3.50;;
19537;SDS011;9914;51.008;4.300;2022-07-29T07:49:39;5.33;;;3.50;;
19537;SDS011;9914;51.008;4.300;2022-07-29T07:52:05;4.93;;;3.33;;
19537;SDS011;9914;51.008;4.300;2022-07-29T07:54:31;5.07;;;3.30;;
19537;SDS011;9914;51.008;4.300;2022-07-29T07:56:56;6.67;;;3.40;;
19537;SDS011;9914;51.008;4.300;2022-07-29T07:59:22;5.27;;;3.40;;
19537;SDS011;9914;51.008;4.300;2022-07-29T08:01:48;3.67;;;3.10;;
19537;SDS011;9914;51.008;4.300;2022-07-29T08:04:14;6.27;;;3.30;;
19537;SDS011;9914;51.008;4.300;2022-07-29T08:06:40;5.40;;;3.13;;
19537;SDS011;9914;51.008;4.300;2022-07-29T08:09:06;4.10;;;3.20;;
19537;SDS011;9914;51.008;4.300;2022-07-29T08:11:32;4.67;;;3.30;;
19537;SDS011;9914;51.008;4.300;2022-07-29T08:13:57;6.30;;;3.50;;
19537;SDS011;9914;51.008;4.300;2022-07-29T08:16:23;8.13;;;4.90;;
19537;SDS011;9914;51.008;4.300;2022-07-29T08:18:50;12.63;;;3.80;;
19537;SDS011;9914;51.008;4.300;2022-07-29T08:21:16;7.77;;;3.63;;
19537;SDS011;9914;51.008;4.300;2022-07-29T08:23:43;5.03;;;3.10;;
19537;SDS011;9914;51.008;4.300;2022-07-29T08:26:20;4.67;;;3.17;;
19537;SDS011;9914;51.008;4.300;2022-07-29T08:28:47;6.47;;;3.50;;
19537;SDS011;9914;51.008;4.300;2022-07-29T08:31:15;4.23;;;3.80;;
19537;SDS011;9914;51.008;4.300;2022-07-29T08:33:41;4.80;;;3.20;;
19537;SDS011;9914;51.008;4.300;2022-07-29T08:36:07;4.77;;;3.00;;
19537;SDS011;9914;51.008;4.300;2022-07-29T08:38:33;4.97;;;3.20;;
19537;SDS011;9914;51.008;4.300;2022-07-29T08:41:02;4.43;;;3.10;;
19537;SDS011;9914;51.008;4.300;2022-07-29T08:43:28;7.43;;;2.90;;
19537;SDS011;9914;51.008;4.300;2022-07-29T08:45:54;6.83;;;3.53;;
19537;SDS011;9914;51.008;4.300;2022-07-29T08:48:22;5.57;;;3.00;;
19537;SDS011;9914;51.008;4.300;2022-07-29T08:50:50;5.77;;;2.80;;
19537;SDS011;9914;51.008;4.300;2022-07-29T08:53:19;5.33;;;2.97;;
19537;SDS011;9914;51.008;4.300;2022-07-29T08:55:46;7.13;;;3.07;;
19537;SDS011;9914;51.008;4.300;2022-07-29T08:58:13;4.20;;;3.00;;
19537;SDS011;9914;51.008;4.300;2022-07-29T09:00:41;5.77;;;3.47;;
19537;SDS011;9914;51.008;4.300;2022-07-29T09:03:09;4.80;;;3.30;;
19537;SDS011;9914;51.008;4.300;2022-07-29T09:05:41;7.07;;;3.53;;
19537;SDS011;9914;51.008;4.300;2022-07-29T09:08:08;4.00;;;3.30;;
19537;SDS011;9914;51.008;4.300;2022-07-29T09:10:36;4.87;;;2.77;;
19537;SDS011;9914;51.008;4.300;2022-07-29T09:13:02;6.40;;;2.90;;
19537;SDS011;9914;51.008;4.300;2022-07-29T09:15:28;5.67;;;3.00;;
19537;SDS011;9914;51.008;4.300;2022-07-29T09:17:54;4.90;;;3.50;;
19537;SDS011;9914;51.008;4.300;2022-07-29T09:20:21;4.20;;;3.40;;
19537;SDS011;9914;51.008;4.300;2022-07-29T09:22:48;5.73;;;2.97;;
19537;SDS011;9914;51.008;4.300;2022-07-29T09:25:31;6.43;;;3.17;;
19537;SDS011;9914;51.008;4.300;2022-07-29T09:28:14;5.27;;;3.10;;
19537;SDS011;9914;51.008;4.300;2022-07-29T09:30:53;9.33;;;3.43;;
19537;SDS011;9914;51.008;4.300;2022-07-29T09:33:22;4.00;;;3.60;;
19537;SDS011;9914;51.008;4.300;2022-07-29T09:36:13;7.03;;;3.03;;
19537;SDS011;9914;51.008;4.300;2022-07-29T09:38:39;5.23;;;3.83;;
19537;SDS011;9914;51.008;4.300;2022-07-29T09:41:04;6.23;;;3.77;;
19537;SDS011;9914;51.008;4.300;2022-07-29T09:43:31;6.03;;;3.97;;
19537;SDS011;9914;51.008;4.300;2022-07-29T09:46:08;5.83;;;3.90;;
19537;SDS011;9914;51.008;4.300;2022-07-29T09:48:36;6.37;;;4.33;;
19537;SDS011;9914;51.008;4.300;2022-07-29T09:51:02;5.77;;;3.50;;
19537;SDS011;9914;51.008;4.300;2022-07-29T09:53:36;7.47;;;3.70;;
19537;SDS011;9914;51.008;4.300;2022-07-29T09:56:03;6.33;;;4.27;;
19537;SDS011;9914;51.008;4.300;2022-07-29T09:58:29;7.67;;;4.20;;
19537;SDS011;9914;51.008;4.300;2022-07-29T10:00:58;5.77;;;4.47;;
19537;SDS011;9914;51.008;4.300;2022-07-29T10:03:24;5.43;;;4.23;;
19537;SDS011;9914;51.008;4.300;2022-07-29T10:08:38;4.47;;;3.50;;
19537;SDS011;9914;51.008;4.300;2022-07-29T10:11:16;6.20;;;4.00;;
19537;SDS011;9914;51.008;4.300;2022-07-29T10:13:43;6.43;;;4.20;;
19537;SDS011;9914;51.008;4.300;2022-07-29T10:16:10;7.17;;;3.90;;
19537;SDS011;9914;51.008;4.300;2022-07-29T10:18:37;8.40;;;4.57;;
19537;SDS011;9914;51.008;4.300;2022-07-29T10:21:04;6.40;;;4.50;;
19537;SDS011;9914;51.008;4.300;2022-07-29T10:23:30;7.03;;;4.10;;
19537;SDS011;9914;51.008;4.300;2022-07-29T10:25:56;8.17;;;4.10;;
19537;SDS011;9914;51.008;4.300;2022-07-29T10:28:22;8.00;;;4.17;;
19537;SDS011;9914;51.008;4.300;2022-07-29T10:30:51;6.47;;;3.53;;
19537;SDS011;9914;51.008;4.300;2022-07-29T10:36:45;8.53;;;4.33;;
19537;SDS011;9914;51.008;4.300;2022-07-29T10:44:41;7.97;;;4.60;;
19537;SDS011;9914;51.008;4.300;2022-07-29T10:47:08;9.37;;;4.43;;
19537;SDS011;9914;51.008;4.300;2022-07-29T10:49:55;6.20;;;3.93;;
19537;SDS011;9914;51.008;4.300;2022-07-29T10:52:23;6.00;;;3.77;;
19537;SDS011;9914;51.008;4.300;2022-07-29T10:54:52;7.00;;;3.70;;
19537;SDS011;9914;51.008;4.300;2022-07-29T10:57:20;7.47;;;3.77;;
19537;SDS011;9914;51.008;4.300;2022-07-29T11:05:07;5.63;;;2.97;;
19537;SDS011;9914;51.008;4.300;2022-07-29T11:07:34;8.37;;;4.03;;
19537;SDS011;9914;51.008;4.300;2022-07-29T11:15:21;5.03;;;3.07;;
19537;SDS011;9914;51.008;4.300;2022-07-29T11:23:00;9.07;;;4.60;;
19537;SDS011;9914;51.008;4.300;2022-07-29T11:25:26;8.30;;;5.27;;
19537;SDS011;9914;51.008;4.300;2022-07-29T11:27:52;8.00;;;4.10;;
19537;SDS011;9914;51.008;4.300;2022-07-29T11:31:00;5.33;;;3.73;;
19537;SDS011;9914;51.008;4.300;2022-07-29T11:33:29;5.67;;;3.83;;
19537;SDS011;9914;51.008;4.300;2022-07-29T11:36:14;8.57;;;3.70;;
19537;SDS011;9914;51.008;4.300;2022-07-29T11:38:40;6.73;;;3.90;;
19537;SDS011;9914;51.008;4.300;2022-07-29T11:41:22;5.07;;;3.00;;
19537;SDS011;9914;51.008;4.300;2022-07-29T11:43:54;7.60;;;3.37;;
19537;SDS011;9914;51.008;4.300;2022-07-29T11:49:22;5.33;;;3.60;;
19537;SDS011;9914;51.008;4.300;2022-07-29T11:51:53;5.57;;;2.80;;
19537;SDS011;9914;51.008;4.300;2022-07-29T11:54:34;4.47;;;4.07;;
19537;SDS011;9914;51.008;4.300;2022-07-29T11:57:02;7.47;;;3.77;;
19537;SDS011;9914;51.008;4.300;2022-07-29T11:59:31;4.23;;;3.10;;
19537;SDS011;9914;51.008;4.300;2022-07-29T12:02:07;6.00;;;3.80;;
19537;SDS011;9914;51.008;4.300;2022-07-29T12:04:34;8.53;;;3.77;;
19537;SDS011;9914;51.008;4.300;2022-07-29T12:07:16;4.67;;;2.53;;
19537;SDS011;9914;51.008;4.300;2022-07-29T12:09:52;6.43;;;3.00;;
19537;SDS011;9914;51.008;4.300;2022-07-29T12:12:18;7.10;;;3.73;;
19537;SDS011;9914;51.008;4.300;2022-07-29T12:14:44;6.30;;;3.13;;
19537;SDS011;9914;51.008;4.300;2022-07-29T12:17:26;6.57;;;3.57;;
19537;SDS011;9914;51.008;4.300;2022-07-29T12:19:57;7.60;;;3.43;;
19537;SDS011;9914;51.008;4.300;2022-07-29T12:22:27;7.77;;;3.63;;
19537;SDS011;9914;51.008;4.300;2022-07-29T12:24:55;7.10;;;3.27;;
19537;SDS011;9914;51.008;4.300;2022-07-29T12:27:21;5.50;;;2.67;;
19537;SDS011;9914;51.008;4.300;2022-07-29T12:29:56;6.37;;;3.07;;
19537;SDS011;9914;51.008;4.300;2022-07-29T12:32:30;7.63;;;3.10;;
19537;SDS011;9914;51.008;4.300;2022-07-29T12:34:57;4.10;;;2.70;;
19537;SDS011;9914;51.008;4.300;2022-07-29T12:37:23;4.77;;;3.20;;
19537;SDS011;9914;51.008;4.300;2022-07-29T12:39:49;6.97;;;3.07;;
19537;SDS011;9914;51.008;4.300;2022-07-29T12:42:15;5.13;;;3.23;;
19537;SDS011;9914;51.008;4.300;2022-07-29T12:47:11;5.57;;;3.20;;
19537;SDS011;9914;51.008;4.300;2022-07-29T12:49:37;6.00;;;3.50;;
19537;SDS011;9914;51.008;4.300;2022-07-29T12:52:22;5.63;;;2.47;;
19537;SDS011;9914;51.008;4.300;2022-07-29T12:54:50;6.60;;;3.40;;
19537;SDS011;9914;51.008;4.300;2022-07-29T12:57:15;6.80;;;3.17;;
19537;SDS011;9914;51.008;4.300;2022-07-29T12:59:41;5.17;;;2.43;;
19537;SDS011;9914;51.008;4.300;2022-07-29T13:02:07;4.80;;;2.50;;
19537;SDS011;9914;51.008;4.300;2022-07-29T13:04:54;6.03;;;2.77;;
19537;SDS011;9914;51.008;4.300;2022-07-29T13:07:25;4.70;;;2.70;;
19537;SDS011;9914;51.008;4.300;2022-07-29T13:09:54;7.20;;;2.10;;
19537;SDS011;9914;51.008;4.300;2022-07-29T13:12:34;5.73;;;2.53;;
19537;SDS011;9914;51.008;4.300;2022-07-29T13:14:59;6.07;;;2.33;;
19537;SDS011;9914;51.008;4.300;2022-07-29T13:17:25;2.67;;;2.30;;
19537;SDS011;9914;51.008;4.300;2022-07-29T13:20:07;4.93;;;2.70;;
19537;SDS011;9914;51.008;4.300;2022-07-29T13:22:37;6.83;;;2.40;;
19537;SDS011;9914;51.008;4.300;2022-07-29T13:25:04;4.97;;;2.20;;
19537;SDS011;9914;51.008;4.300;2022-07-29T13:27:34;5.33;;;2.20;;
19537;SDS011;9914;51.008;4.300;2022-07-29T13:30:03;3.23;;;2.10;;
19537;SDS011;9914;51.008;4.300;2022-07-29T13:32:33;4.60;;;2.00;;
19537;SDS011;9914;51.008;4.300;2022-07-29T13:35:01;5.03;;;2.17;;
19537;SDS011;9914;51.008;4.300;2022-07-29T13:37:28;3.27;;;1.90;;
19537;SDS011;9914;51.008;4.300;2022-07-29T13:39:55;5.23;;;2.20;;
19537;SDS011;9914;51.008;4.300;2022-07-29T13:42:22;4.20;;;2.10;;
19537;SDS011;9914;51.008;4.300;2022-07-29T13:44:48;4.13;;;2.10;;
19537;SDS011;9914;51.008;4.300;2022-07-29T13:47:15;4.07;;;2.00;;
19537;SDS011;9914;51.008;4.300;2022-07-29T13:49:41;6.10;;;2.20;;
19537;SDS011;9914;51.008;4.300;2022-07-29T13:52:07;3.27;;;1.80;;
19537;SDS011;9914;51.008;4.300;2022-07-29T13:54:32;5.97;;;2.40;;
19537;SDS011;9914;51.008;4.300;2022-07-29T13:57:02;4.77;;;2.30;;
19537;SDS011;9914;51.008;4.300;2022-07-29T13:59:28;4.67;;;2.20;;
19537;SDS011;9914;51.008;4.300;2022-07-29T14:01:54;5.33;;;2.07;;
19537;SDS011;9914;51.008;4.300;2022-07-29T14:04:19;4.97;;;2.23;;
19537;SDS011;9914;51.008;4.300;2022-07-29T14:06:46;3.60;;;2.13;;
19537;SDS011;9914;51.008;4.300;2022-07-29T14:09:12;4.50;;;2.07;;
19537;SDS011;9914;51.008;4.300;2022-07-29T14:11:37;4.17;;;2.03;;
19537;SDS011;9914;51.008;4.300;2022-07-29T14:14:03;3.27;;;2.00;;
19537;SDS011;9914;51.008;4.300;2022-07-29T14:16:29;6.50;;;2.30;;
19537;SDS011;9914;51.008;4.300;2022-07-29T14:18:55;5.97;;;2.70;;
19537;SDS011;9914;51.008;4.300;2022-07-29T14:21:21;3.47;;;2.60;;
19537;SDS011;9914;51.008;4.300;2022-07-29T14:23:46;4.03;;;2.00;;
19537;SDS011;9914;51.008;4.300;2022-07-29T14:26:12;5.37;;;2.63;;
19537;SDS011;9914;51.008;4.300;2022-07-29T14:28:39;3.57;;;2.20;;
19537;SDS011;9914;51.008;4.300;2022-07-29T14:31:05;6.23;;;3.07;;
19537;SDS011;9914;51.008;4.300;2022-07-29T14:33:30;6.87;;;2.67;;
19537;SDS011;9914;51.008;4.300;2022-07-29T14:35:56;4.70;;;2.80;;
19537;SDS011;9914;51.008;4.300;2022-07-29T14:38:22;5.07;;;2.40;;
19537;SDS011;9914;51.008;4.300;2022-07-29T14:40:47;3.80;;;2.53;;
19537;SDS011;9914;51.008;4.300;2022-07-29T14:43:13;4.87;;;2.20;;
19537;SDS011;9914;51.008;4.300;2022-07-29T14:45:39;4.97;;;2.30;;
19537;SDS011;9914;51.008;4.300;2022-07-29T14:48:05;4.87;;;2.63;;
19537;SDS011;9914;51.008;4.300;2022-07-29T14:50:31;5.43;;;2.37;;
19537;SDS011;9914;51.008;4.300;2022-07-29T14:52:57;5.40;;;2.60;;
19537;SDS011;9914;51.008;4.300;2022-07-29T14:55:23;2.93;;;2.40;;
19537;SDS011;9914;51.008;4.300;2022-07-29T14:57:49;3.10;;;2.40;;
19537;SDS011;9914;51.008;4.300;2022-07-29T15:00:14;5.37;;;2.37;;
19537;SDS011;9914;51.008;4.300;2022-07-29T15:02:41;9.80;;;3.00;;
19537;SDS011;9914;51.008;4.300;2022-07-29T15:05:06;6.83;;;2.53;;
19537;SDS011;9914;51.008;4.300;2022-07-29T15:07:32;6.00;;;2.73;;
19537;SDS011;9914;51.008;4.300;2022-07-29T15:09:58;4.37;;;2.30;;
19537;SDS011;9914;51.008;4.300;2022-07-29T15:12:23;5.70;;;2.80;;
19537;SDS011;9914;51.008;4.300;2022-07-29T15:14:49;6.97;;;2.73;;
19537;SDS011;9914;51.008;4.300;2022-07-29T15:17:14;5.67;;;2.37;;
19537;SDS011;9914;51.008;4.300;2022-07-29T15:19:40;5.33;;;2.60;;
19537;SDS011;9914;51.008;4.300;2022-07-29T15:22:06;5.27;;;2.30;;
19537;SDS011;9914;51.008;4.300;2022-07-29T15:24:31;3.33;;;2.30;;
19537;SDS011;9914;51.008;4.300;2022-07-29T15:26:57;3.37;;;2.50;;
19537;SDS011;9914;51.008;4.300;2022-07-29T15:29:23;5.20;;;2.40;;
19537;SDS011;9914;51.008;4.300;2022-07-29T15:31:48;5.70;;;3.33;;
19537;SDS011;9914;51.008;4.300;2022-07-29T15:34:14;4.47;;;2.47;;
19537;SDS011;9914;51.008;4.300;2022-07-29T15:36:40;4.90;;;2.50;;
19537;SDS011;9914;51.008;4.300;2022-07-29T15:39:05;6.33;;;2.80;;
19537;SDS011;9914;51.008;4.300;2022-07-29T15:41:32;4.67;;;3.07;;
19537;SDS011;9914;51.008;4.300;2022-07-29T15:43:58;5.97;;;3.00;;
19537;SDS011;9914;51.008;4.300;2022-07-29T15:46:24;5.73;;;2.90;;
19537;SDS011;9914;51.008;4.300;2022-07-29T15:49:08;7.10;;;3.00;;
19537;SDS011;9914;51.008;4.300;2022-07-29T15:51:35;6.53;;;2.90;;
19537;SDS011;9914;51.008;4.300;2022-07-29T15:54:02;4.00;;;2.70;;